Time;durP1;ratioP1;P1;durP2;ratioP2;P2;SDS_P1;SDS_P2;PMS_P1;PMS_P2;Temp;Humidity;BMP_temperature;BMP_pressure;BME280_temperature;BME280_humidity;BME280_pressure;Samples;Min_cycle;Max_cycle;Signal;HPM_P1;HPM_P2
2023/01/13 00:00:00;;;;;;;0.55;0.40;;;;;;;;;;5017004;28;20644;-82
2023/01/13 00:02:26;;;;;;;0.60;0.40;;;;;;;;;;5038011;28;20174;-83
2023/01/13 00:04:52;;;;;;;0.60;0.50;;;;;;;;;;5053834;28;20178;-81
2023/01/13 00:07:18;;;;;;;0.60;0.40;;;;;;;;;;5053728;28;20213;-81
2023/01/13 00:09:44;;;;;;;1.07;0.77;;;;;;;;;;5038574;28;20193;-82
2023/01/13 00:12:10;;;;;;;0.70;0.50;;;;;;;;;;5038142;28;20836;-83
2023/01/13 00:14:36;;;;;;;1.10;0.50;;;;;;;;;;5004559;28;20425;-81
2023/01/13 00:17:03;;;;;;;0.70;0.50;;;;;;;;;;5005348;28;20429;-81
2023/01/13 00:19:29;;;;;;;0.60;0.50;;;;;;;;;;5053885;28;20429;-81
2023/01/13 00:21:55;;;;;;;0.70;0.47;;;;;;;;;;5054137;28;20181;-81
2023/01/13 00:24:21;;;;;;;0.50;0.40;;;;;;;;;;5005018;28;20174;-81
2023/01/13 00:26:47;;;;;;;0.80;0.50;;;;;;;;;;5038810;28;20452;-81
2023/01/13 00:29:13;;;;;;;0.70;0.50;;;;;;;;;;5020992;28;20189;-82
2023/01/13 00:31:39;;;;;;;2.10;0.60;;;;;;;;;;5038595;28;20182;-81
2023/01/13 00:34:05;;;;;;;0.70;0.50;;;;;;;;;;5038901;28;20415;-82
2023/01/13 00:36:31;;;;;;;1.20;0.57;;;;;;;;;;5038270;28;20182;-81
2023/01/13 00:38:57;;;;;;;1.15;0.60;;;;;;;;;;5038855;28;20500;-81
2023/01/13 00:41:24;;;;;;;0.60;0.50;;;;;;;;;;5038548;28;20179;-81
2023/01/13 00:43:50;;;;;;;0.60;0.60;;;;;;;;;;5053785;28;20225;-81
2023/01/13 00:46:18;;;;;;;0.70;0.50;;;;;;;;;;5053672;28;20182;-83
2023/01/13 00:48:44;;;;;;;0.90;0.60;;;;;;;;;;5054016;28;20633;-81
2023/01/13 00:51:15;;;;;;;2.55;0.63;;;;;;;;;;5053544;28;20189;-84
2023/01/13 00:53:43;;;;;;;0.90;0.50;;;;;;;;;;5044279;28;20230;-81
2023/01/13 00:56:19;;;;;;;2.38;0.70;;;;;;;;;;5067718;28;20179;-81
2023/01/13 00:58:46;;;;;;;2.05;0.60;;;;;;;;;;5044052;28;20178;-82
2023/01/13 01:01:20;;;;;;;0.70;0.60;;;;;;;;;;5020630;28;20654;-82
2023/01/13 01:03:49;;;;;;;1.58;1.02;;;;;;;;;;5038668;28;20197;-81
2023/01/13 01:06:20;;;;;;;3.40;0.73;;;;;;;;;;5038495;28;20202;-82
2023/01/13 01:08:46;;;;;;;1.00;0.60;;;;;;;;;;5020218;28;20623;-82
2023/01/13 01:11:13;;;;;;;5.03;0.80;;;;;;;;;;5019877;28;20214;-85
2023/01/13 01:13:40;;;;;;;1.50;0.70;;;;;;;;;;5053295;28;20928;-82
2023/01/13 01:16:07;;;;;;;6.35;0.65;;;;;;;;;;5053525;28;20194;-81
2023/01/13 01:18:34;;;;;;;1.45;0.65;;;9.60;99.90;;;;;;5053016;28;20192;-82
2023/01/13 01:21:00;;;;;;;3.95;0.88;;;9.60;99.90;;;;;;5037716;28;20178;-82
2023/01/13 01:23:28;;;;;;;1.10;0.67;;;;;;;;;;5037314;28;20225;-82
2023/01/13 01:25:54;;;;;;;7.65;1.40;;;;;;;;;;5037573;28;20401;-82
2023/01/13 01:28:19;;;;;;;1.00;0.80;;;9.60;99.90;;;;;;5052026;28;20198;-81
2023/01/13 01:30:45;;;;;;;3.10;0.97;;;;;;;;;;5003340;28;20429;-81
2023/01/13 01:33:11;;;;;;;3.80;0.95;;;;;;;;;;5036978;28;20174;-81
2023/01/13 01:35:41;;;;;;;1.38;0.88;;;;;;;;;;5037036;28;20174;-81
2023/01/13 01:38:07;;;;;;;1.55;0.70;;;;;;;;;;5037624;28;20268;-82
2023/01/13 01:40:33;;;;;;;2.45;0.90;;;;;;;;;;5036390;28;20257;-82
2023/01/13 01:45:44;;;;;;;1.65;0.80;;;;;;;;;;5022469;28;20162;-82
2023/01/13 01:48:10;;;;;;;1.70;0.57;;;8.90;99.90;;;;;;5019579;28;20206;-82
2023/01/13 01:50:37;;;;;;;0.98;0.70;;;8.80;99.90;;;;;;5036197;28;20420;-82
2023/01/13 01:53:09;;;;;;;1.40;0.80;;;;;;;;;;5037328;28;20213;-82
2023/01/13 01:55:35;;;;;;;1.00;0.65;;;;;;;;;;5037352;28;20248;-81
2023/01/13 01:58:14;;;;;;;1.58;0.50;;;8.40;99.90;;;;;;5037024;28;20178;-82
2023/01/13 02:00:39;;;;;;;1.60;0.70;;;8.40;99.90;;;;;;5018986;28;20247;-82
2023/01/13 02:03:07;;;;;;;2.33;0.80;;;8.40;99.90;;;;;;5037178;28;20179;-82
2023/01/13 02:05:33;;;;;;;5.75;0.88;;;8.50;99.90;;;;;;5036508;28;20181;-82
2023/01/13 02:08:00;;;;;;;1.50;0.70;;;8.50;99.90;;;;;;5019188;28;20208;-83
2023/01/13 02:10:27;;;;;;;3.10;0.77;;;8.50;99.90;;;;;;5051652;28;20416;-82
2023/01/13 02:12:57;;;;;;;1.23;0.70;;;8.50;99.90;;;;;;5018773;28;20193;-82
2023/01/13 02:15:50;;;;;;;3.45;1.27;;;8.50;99.90;;;;;;5036607;28;20186;-82
2023/01/13 02:18:48;;;;;;;2.45;0.80;;;8.50;99.90;;;;;;5036396;28;20272;-83
2023/01/13 02:21:41;;;;;;;5.20;0.85;;;8.50;99.90;;;;;;5036325;28;20185;-83
2023/01/13 02:27:53;;;;;;;0.95;0.73;;;8.50;99.90;;;;;;5035721;28;20201;-83
2023/01/13 02:34:00;;;;;;;0.73;0.73;;;8.60;99.90;;;;;;5035949;28;20174;-83
2023/01/13 02:36:40;;;;;;;1.40;0.60;;;8.60;99.90;;;;;;5017851;28;20740;-82
2023/01/13 02:39:10;;;;;;;1.75;0.70;;;8.60;99.90;;;;;;5036049;28;20236;-82
2023/01/13 02:45:00;;;;;;;1.45;0.55;;;8.60;99.90;;;;;;5035584;28;20164;-82
2023/01/13 02:47:29;;;;;;;3.05;0.77;;;8.60;99.90;;;;;;5035694;28;20197;-82
2023/01/13 02:50:02;;;;;;;0.70;0.52;;;8.60;99.90;;;;;;5017906;28;20182;-82
2023/01/13 02:52:36;;;;;;;3.15;1.05;;;8.50;99.90;;;;;;5017958;28;20228;-82
2023/01/13 02:55:33;;;;;;;1.85;0.70;;;8.50;99.90;;;;;;5035471;28;20185;-82
2023/01/13 02:58:02;;;;;;;4.80;0.90;;;8.40;99.90;;;;;;5016585;28;20650;-82
2023/01/13 03:00:28;;;;;;;2.45;0.90;;;8.40;99.90;;;;;;5017258;28;20595;-83
2023/01/13 03:02:54;;;;;;;7.28;0.80;;;8.40;99.90;;;;;;5035296;28;20178;-82
2023/01/13 03:05:20;;;;;;;5.73;1.30;;;8.30;99.90;;;;;;5017572;28;20184;-83
2023/01/13 03:08:03;;;;;;;2.00;1.00;;;8.30;99.90;;;;;;5017669;28;20560;-82
2023/01/13 03:11:03;;;;;;;6.95;0.75;;;8.30;99.90;;;;;;5017542;28;20194;-83
2023/01/13 03:14:07;;;;;;;3.08;1.20;;;8.30;99.90;;;;;;5017086;28;20181;-82
2023/01/13 03:16:54;;;;;;;0.95;0.63;;;8.40;99.90;;;;;;5017383;28;20176;-82
2023/01/13 03:19:25;;;;;;;4.30;1.10;;;8.30;99.90;;;;;;5034493;28;20185;-84
2023/01/13 03:22:04;;;;;;;1.30;0.70;;;8.30;99.90;;;;;;5016882;28;20547;-82
2023/01/13 03:24:39;;;;;;;1.90;1.13;;;;;;;;;;5034615;28;20207;-82
2023/01/13 03:27:11;;;;;;;4.78;1.30;;;8.20;99.90;;;;;;5035157;28;20196;-82
2023/01/13 03:29:45;;;;;;;5.25;1.00;;;8.20;99.90;;;;;;5017490;28;20221;-82
2023/01/13 03:32:19;;;;;;;4.60;1.02;;;8.10;99.90;;;;;;5035183;28;20162;-82
2023/01/13 03:34:53;;;;;;;8.63;1.40;;;8.10;99.90;;;;;;5034918;28;20184;-82
2023/01/13 03:37:22;;;;;;;4.28;1.63;;;8.00;99.90;;;;;;5034568;28;20531;-82
2023/01/13 03:40:02;;;;;;;4.80;1.00;;;8.10;99.90;;;;;;5034450;28;20590;-82
2023/01/13 03:42:31;;;;;;;3.40;0.90;;;8.10;99.90;;;;;;5047207;28;20171;-82
2023/01/13 03:45:14;;;;;;;11.80;1.65;;;8.10;99.90;;;;;;5035361;28;20592;-82
2023/01/13 03:47:42;;;;;;;4.38;1.60;;;8.10;99.90;;;;;;5018070;28;20748;-83
2023/01/13 03:50:14;;;;;;;5.50;1.38;;;8.20;99.90;;;;;;5017395;28;20194;-82
2023/01/13 03:52:45;;;;;;;8.00;2.40;;;8.10;99.90;;;;;;5017151;28;20178;-82
2023/01/13 03:55:19;;;;;;;4.53;1.80;;;8.20;99.90;;;;;;5017579;28;20166;-82
2023/01/13 03:57:54;;;;;;;2.88;1.23;;;8.20;99.90;;;;;;5035305;28;20192;-83
2023/01/13 04:00:25;;;;;;;12.23;2.08;;;8.30;99.90;;;;;;5034923;28;20165;-82
2023/01/13 04:02:56;;;;;;;5.22;1.55;;;8.30;99.90;;;;;;5034800;28;20162;-82
2023/01/13 04:05:23;;;;;;;13.02;1.95;;;8.20;99.90;;;;;;5016898;28;20174;-82
2023/01/13 04:08:09;;;;;;;6.32;1.85;;;8.10;99.90;;;;;;5035126;28;20289;-83
2023/01/13 04:10:44;;;;;;;7.72;2.22;;;8.10;99.90;;;;;;5011138;28;20282;-82
2023/01/13 04:13:18;;;;;;;8.15;1.75;;;8.10;99.90;;;;;;5034756;28;20168;-82
2023/01/13 04:15:45;;;;;;;10.48;2.03;;;8.10;99.90;;;;;;5034434;28;20192;-83
2023/01/13 04:18:14;;;;;;;12.07;1.95;;;8.20;99.90;;;;;;5016985;28;20243;-82
2023/01/13 04:20:41;;;;;;;7.55;2.00;;;8.10;99.90;;;;;;5016466;28;20210;-82
2023/01/13 04:23:07;;;;;;;5.68;1.35;;;8.10;99.90;;;;;;5016757;28;20209;-82
2023/01/13 04:25:33;;;;;;;10.95;1.80;;;8.00;99.90;;;;;;5034006;28;20178;-81
2023/01/13 04:27:59;;;;;;;7.70;2.13;;;8.00;99.90;;;;;;5034310;28;20206;-82
2023/01/13 04:30:24;;;;;;;13.57;2.23;;;8.00;99.90;;;;;;5016507;28;20265;-82
2023/01/13 04:32:50;;;;;;;11.20;2.00;;;7.90;99.90;;;;;;5017092;28;20738;-81
2023/01/13 04:35:16;;;;;;;6.80;2.13;;;7.90;99.90;;;;;;5000319;28;20223;-82
2023/01/13 04:37:41;;;;;;;9.10;2.20;;;7.80;99.90;;;;;;5000688;28;20456;-82
2023/01/13 04:40:08;;;;;;;8.73;2.47;;;7.80;99.90;;;;;;5016347;28;20658;-82
2023/01/13 04:42:33;;;;;;;7.32;1.90;;;7.80;99.90;;;;;;5016341;28;20597;-82
2023/01/13 04:44:59;;;;;;;10.10;2.50;;;7.80;99.90;;;;;;5000387;28;20179;-82
2023/01/13 04:47:24;;;;;;;9.83;2.00;;;7.90;99.90;;;;;;5018460;28;20214;-83
2023/01/13 04:49:50;;;;;;;9.63;2.07;;;7.90;99.90;;;;;;5020218;28;20196;-83
2023/01/13 04:52:16;;;;;;;8.03;1.80;;;7.90;99.90;;;;;;5017133;28;20600;-82
2023/01/13 04:54:41;;;;;;;12.27;3.53;;;7.90;99.90;;;;;;5003486;28;20281;-82
2023/01/13 04:57:07;;;;;;;11.63;2.50;;;8.00;99.90;;;;;;5037544;28;20417;-82
2023/01/13 04:59:32;;;;;;;14.53;2.00;;;8.00;99.90;;;;;;5003098;28;20205;-82
2023/01/13 05:01:58;;;;;;;7.20;1.47;;;8.00;99.90;;;;;;5003378;28;20551;-81
2023/01/13 05:04:23;;;;;;;11.93;2.77;;;8.00;99.90;;;;;;5019957;28;20254;-81
2023/01/13 05:06:49;;;;;;;7.37;1.83;;;8.10;99.90;;;;;;5019307;28;20217;-81
2023/01/13 05:09:15;;;;;;;8.30;1.83;;;8.20;99.90;;;;;;5019782;28;20197;-81
2023/01/13 05:17:16;;;;;;;8.18;2.55;;;8.10;99.90;;;;;;5037484;28;20176;-81
2023/01/13 05:19:42;;;;;;;8.18;2.15;;;8.10;99.90;;;;;;5037188;28;20171;-81
2023/01/13 05:27:35;;;;;;;6.80;1.70;;;8.10;99.90;;;;;;5037638;28;20209;-81
2023/01/13 05:30:01;;;;;;;7.03;2.00;;;8.20;99.90;;;;;;5036783;28;20635;-81
2023/01/13 05:32:27;;;;;;;11.07;1.50;;;8.20;99.90;;;;;;5019495;28;20181;-84
2023/01/13 05:34:54;;;;;;;7.43;1.83;;;8.30;99.90;;;;;;5037322;28;20178;-81
2023/01/13 05:37:20;;;;;;;4.47;2.30;;;8.30;99.90;;;;;;5037242;28;20178;-81
2023/01/13 05:45:14;;;;;;;6.28;1.50;;;8.30;99.90;;;;;;5037046;28;20180;-80
2023/01/13 05:47:40;;;;;;;6.10;1.30;;;8.40;99.90;;;;;;5019311;28;20679;-81
2023/01/13 05:50:06;;;;;;;5.60;1.23;;;8.50;99.90;;;;;;5019177;28;20544;-81
2023/01/13 05:52:32;;;;;;;5.03;1.15;;;8.40;99.90;;;;;;5036653;28;20250;-81
2023/01/13 05:54:57;;;;;;;3.37;1.20;;;8.40;99.90;;;;;;5019116;28;20528;-81
2023/01/13 05:57:23;;;;;;;3.40;1.17;;;8.40;99.90;;;;;;5036753;28;20184;-82
2023/01/13 05:59:48;;;;;;;3.37;1.70;;;8.40;99.90;;;;;;5018376;28;20541;-81
2023/01/13 06:02:14;;;;;;;5.33;1.20;;;8.40;99.90;;;;;;5002760;28;20232;-81
2023/01/13 06:04:39;;;;;;;3.90;1.40;;;8.30;99.90;;;;;;5018923;28;20182;-81
2023/01/13 06:07:05;;;;;;;7.10;1.93;;;8.30;99.90;;;;;;5019286;28;20538;-81
2023/01/13 06:09:31;;;;;;;4.67;1.23;;;8.30;99.90;;;;;;5018361;28;20205;-81
2023/01/13 06:11:57;;;;;;;4.22;1.23;;;8.20;99.90;;;;;;5018529;28;20182;-81
2023/01/13 06:14:23;;;;;;;6.03;1.40;;;8.20;99.90;;;;;;5018797;28;20261;-80
2023/01/13 06:16:48;;;;;;;8.37;2.17;;;8.20;99.90;;;;;;5019411;28;20197;-81
2023/01/13 06:19:14;;;;;;;6.10;1.10;;;8.30;99.90;;;;;;5003055;28;20201;-81
2023/01/13 06:21:40;;;;;;;5.90;1.73;;;8.30;99.90;;;;;;5036677;28;20174;-81
2023/01/13 06:24:07;;;;;;;8.93;1.08;;;8.30;99.90;;;;;;5036492;28;20587;-81
2023/01/13 06:26:37;;;;;;;5.20;1.30;;;8.30;99.90;;;;;;5018238;28;20551;-82
2023/01/13 06:29:03;;;;;;;3.35;1.33;;;8.30;99.90;;;;;;5036842;28;20162;-80
2023/01/13 06:31:29;;;;;;;2.95;1.15;;;8.30;99.90;;;;;;5048088;28;20179;-80
2023/01/13 06:33:59;;;;;;;4.32;1.02;;;8.40;99.90;;;;;;5048382;28;20187;-80
2023/01/13 06:36:30;;;;;;;1.70;1.00;;;8.40;99.90;;;;;;5036823;28;20174;-82
2023/01/13 06:38:59;;;;;;;6.38;1.27;;;8.40;99.90;;;;;;5036105;28;20756;-81
2023/01/13 06:44:11;;;;;;;3.30;1.10;;;8.40;99.90;;;;;;5035917;28;20228;-81
2023/01/13 06:46:37;;;;;;;10.40;1.40;;;8.40;99.90;;;;;;5017269;28;20276;-81
2023/01/13 06:49:02;;;;;;;5.73;1.33;;;8.30;99.90;;;;;;5035442;28;20186;-81
2023/01/13 06:51:28;;;;;;;6.87;1.50;;;8.40;99.90;;;;;;5017429;28;20178;-80
2023/01/13 06:53:54;;;;;;;5.47;1.40;;;8.40;99.90;;;;;;5016906;28;20198;-81
2023/01/13 06:56:19;;;;;;;4.40;1.27;;;8.40;99.90;;;;;;5018135;28;20178;-85
2023/01/13 06:58:45;;;;;;;4.67;1.40;;;8.40;99.90;;;;;;5017951;28;20186;-80
2023/01/13 07:01:10;;;;;;;7.83;1.20;;;8.40;99.90;;;;;;5035082;28;20573;-80
2023/01/13 07:03:36;;;;;;;7.03;1.57;;;8.40;99.90;;;;;;5017037;28;20186;-80
2023/01/13 07:06:01;;;;;;;6.10;1.47;;;8.40;99.90;;;;;;5015975;28;20189;-81
2023/01/13 07:08:27;;;;;;;4.27;1.13;;;8.30;99.90;;;;;;5014937;28;20229;-80
2023/01/13 07:10:53;;;;;;;3.17;1.07;;;8.30;99.90;;;;;;4996567;28;20269;-81
2023/01/13 07:16:05;;;;;;;2.88;1.30;;;8.20;99.90;;;;;;5014999;28;20160;-81
2023/01/13 07:18:33;;;;;;;6.82;1.45;;;8.10;99.90;;;;;;5019784;28;20186;-81
2023/01/13 07:21:00;;;;;;;6.10;1.25;;;8.10;99.90;;;;;;4997819;28;20179;-81
2023/01/13 07:23:27;;;;;;;9.35;1.70;;;8.10;99.90;;;;;;5015368;28;20186;-80
2023/01/13 07:25:58;;;;;;;5.03;1.25;;;8.00;99.90;;;;;;4997947;28;20683;-82
2023/01/13 07:28:24;;;;;;;4.53;1.50;;;8.00;99.90;;;;;;5014599;28;20289;-81
2023/01/13 07:30:50;;;;;;;4.55;1.58;;;8.00;99.90;;;;;;4996800;28;20187;-81
2023/01/13 07:33:17;;;;;;;4.87;1.00;;;8.00;99.90;;;;;;4997838;28;20183;-81
2023/01/13 07:35:47;;;;;;;3.55;1.02;;;7.90;99.90;;;;;;4997545;28;20186;-80
2023/01/13 07:38:13;;;;;;;2.90;0.77;;;7.90;99.90;;;;;;5014196;28;20586;-80
2023/01/13 07:40:39;;;;;;;2.93;1.00;;;7.90;99.90;;;;;;4960262;28;1074592;-81
2023/01/13 07:45:48;;;;;;;3.30;1.63;;;7.80;99.90;;;;;;5015419;28;20622;-81
2023/01/13 07:48:14;;;;;;;4.63;1.20;;;7.80;99.90;;;;;;4981321;28;20207;-82
2023/01/13 07:50:39;;;;;;;4.73;1.40;;;7.80;99.90;;;;;;4997238;28;20182;-80
2023/01/13 07:53:05;;;;;;;7.60;1.43;;;7.70;99.90;;;;;;5013846;28;20286;-81
2023/01/13 07:55:30;;;;;;;3.40;1.13;;;7.70;99.90;;;;;;4997579;28;20174;-79
2023/01/13 07:57:56;;;;;;;5.03;1.33;;;7.70;99.90;;;;;;4997141;28;20233;-81
2023/01/13 08:00:22;;;;;;;5.10;1.30;;;7.80;99.90;;;;;;5013692;28;20584;-81
2023/01/13 08:02:47;;;;;;;4.77;2.13;;;7.80;99.90;;;;;;5013512;28;20191;-81
2023/01/13 08:05:13;;;;;;;6.70;1.50;;;7.80;99.90;;;;;;5013591;28;20508;-81
2023/01/13 08:07:39;;;;;;;3.70;1.07;;;7.80;99.90;;;;;;5014336;28;20252;-81
2023/01/13 08:10:05;;;;;;;6.13;1.80;;;7.80;99.90;;;;;;4997216;28;20266;-81
2023/01/13 08:15:16;;;;;;;6.82;1.65;;;7.80;99.90;;;;;;5000013;28;20186;-81
2023/01/13 08:17:41;;;;;;;3.50;1.47;;;7.90;99.90;;;;;;4997058;28;20186;-81
2023/01/13 08:20:09;;;;;;;10.90;1.27;;;7.90;99.90;;;;;;5013482;28;20217;-81
2023/01/13 08:22:34;;;;;;;5.68;1.60;;;8.00;99.90;;;;;;5016705;28;20266;-81
2023/01/13 08:25:00;;;;;;;12.37;1.77;;;8.00;99.90;;;;;;5001056;28;20261;-81
2023/01/13 08:27:26;;;;;;;8.80;2.00;;;8.10;99.90;;;;;;4984529;28;20209;-82
2023/01/13 08:29:51;;;;;;;2.30;1.27;;;8.10;99.90;;;;;;5000647;28;20249;-82
2023/01/13 08:32:17;;;;;;;5.83;2.07;;;8.10;99.90;;;;;;4984380;28;20213;-82
2023/01/13 08:34:43;;;;;;;4.27;1.70;;;8.20;99.90;;;;;;4980244;28;20183;-83
2023/01/13 08:37:08;;;;;;;6.67;1.97;;;8.20;99.90;;;;;;4999526;28;20612;-83
2023/01/13 08:39:35;;;;;;;8.47;1.90;;;8.30;99.90;;;;;;4983563;28;20325;-83
2023/01/13 08:42:01;;;;;;;8.50;2.50;;;8.40;99.90;;;;;;4984254;28;20187;-82
2023/01/13 08:44:29;;;;;;;10.32;1.92;;;8.40;99.90;;;;;;4984209;28;20190;-82
2023/01/13 08:46:55;;;;;;;8.18;2.10;;;8.50;99.90;;;;;;4999763;28;20267;-82
2023/01/13 08:49:22;;;;;;;5.13;1.93;;;8.50;99.90;;;;;;5000036;28;20182;-82
2023/01/13 08:51:48;;;;;;;7.72;3.58;;;8.50;99.90;;;;;;5000469;28;20907;-81
2023/01/13 08:54:14;;;;;;;6.68;1.83;;;8.50;99.90;;;;;;5001868;28;20227;-82
2023/01/13 08:56:44;;;;;;;15.85;2.47;;;8.60;99.90;;;;;;5020687;28;20193;-82
2023/01/13 08:59:18;;;;;;;7.15;2.30;;;8.70;99.90;;;;;;5019928;28;20197;-81
2023/01/13 09:01:44;;;;;;;10.38;2.17;;;8.70;99.90;;;;;;5021877;28;20183;-81
2023/01/13 09:04:22;;;;;;;14.80;2.72;;;8.70;99.90;;;;;;5020293;28;20178;-82
2023/01/13 09:06:48;;;;;;;5.40;1.60;;;8.80;99.90;;;;;;5019695;28;20283;-82
2023/01/13 09:09:14;;;;;;;5.65;1.70;;;8.80;99.90;;;;;;5003489;28;20209;-81
2023/01/13 09:14:31;;;;;;;18.50;2.97;;;8.90;99.90;;;;;;5037901;28;20225;-81
2023/01/13 09:16:57;;;;;;;12.82;2.70;;;9.00;99.90;;;;;;5037473;28;20214;-82
2023/01/13 09:19:23;;;;;;;9.05;2.55;;;9.00;99.90;;;;;;5034968;28;20236;-82
2023/01/13 09:21:48;;;;;;;12.13;2.80;;;9.00;99.90;;;;;;5020668;28;20178;-82
2023/01/13 09:24:14;;;;;;;20.70;3.70;;;9.00;99.90;;;;;;5020501;28;20277;-82
2023/01/13 09:26:40;;;;;;;10.70;3.40;;;9.10;99.90;;;;;;5019585;28;20178;-82
2023/01/13 09:29:05;;;;;;;11.20;2.87;;;9.10;99.90;;;;;;5003099;28;20197;-82
2023/01/13 09:31:34;;;;;;;7.83;2.03;;;9.20;99.90;;;;;;5019522;28;20178;-82
2023/01/13 09:36:49;;;;;;;10.63;3.22;;;9.30;99.90;;;;;;5037047;28;20173;-83
2023/01/13 09:39:15;;;;;;;11.10;2.70;;;9.30;99.90;;;;;;5019267;28;20245;-82
2023/01/13 09:44:47;;;;;;;12.77;2.90;;;9.40;99.90;;;;;;5036952;28;20408;-81
2023/01/13 09:47:54;;;;;;;7.13;1.90;;;9.50;99.90;;;;;;5019172;28;20224;-82
2023/01/13 09:50:51;;;;;;;10.32;2.15;;;9.50;99.90;;;;;;5018798;28;20178;-83
2023/01/13 09:53:38;;;;;;;12.40;2.25;;;9.60;99.90;;;;;;5018984;28;20536;-82
2023/01/13 09:56:05;;;;;;;13.48;2.30;;;9.70;99.90;;;;;;5018278;28;20197;-82
2023/01/13 09:58:32;;;;;;;7.03;1.85;;;9.70;99.90;;;;;;5019036;28;20207;-81
2023/01/13 10:01:17;;;;;;;17.05;2.53;;;9.60;99.90;;;;;;5018746;28;20175;-82
2023/01/13 10:03:43;;;;;;;13.07;2.65;;;9.70;99.90;;;;;;5017898;28;20178;-82
2023/01/13 10:06:22;;;;;;;11.50;2.40;;;9.80;99.90;;;;;;5018729;28;20251;-81
2023/01/13 10:08:49;;;;;;;9.45;3.30;;;9.90;99.90;;;;;;5018538;28;20492;-82
2023/01/13 10:14:11;;;;;;;12.43;2.38;;;10.00;99.90;;;;;;5036003;28;20161;-82
2023/01/13 10:17:04;;;;;;;8.55;3.10;;;9.90;99.90;;;;;;5018937;28;20189;-82
2023/01/13 10:19:45;;;;;;;4.70;1.25;;;9.90;99.90;;;;;;5018581;28;20527;-82
2023/01/13 10:22:19;;;;;;;13.98;2.58;;;9.90;99.90;;;;;;5018777;28;20285;-81
2023/01/13 10:25:02;;;;;;;10.43;1.85;;;10.00;99.90;;;;;;5018475;28;20177;-83
2023/01/13 10:27:34;;;;;;;6.78;1.95;;;10.00;99.90;;;;;;5018342;28;20205;-82
2023/01/13 10:30:10;;;;;;;17.42;3.45;;;10.10;99.90;;;;;;5018272;28;20247;-82
2023/01/13 10:32:36;;;;;;;5.57;2.00;;;10.20;99.90;;;;;;5018096;28;20549;-82
2023/01/13 10:35:01;;;;;;;8.90;2.27;;;10.30;99.90;;;;;;5018001;28;20182;-81
2023/01/13 10:37:27;;;;;;;7.97;2.00;;;10.30;99.90;;;;;;5018066;28;20616;-81
2023/01/13 10:39:55;;;;;;;10.60;2.90;;;10.20;99.90;;;;;;5018012;28;20222;-81
2023/01/13 10:42:22;;;;;;;9.80;2.35;;;10.10;99.90;;;;;;5017861;28;20182;-81
2023/01/13 10:44:56;;;;;;;12.43;2.50;;;10.40;99.90;;;;;;5001300;28;20254;-82
2023/01/13 10:47:27;;;;;;;10.50;2.45;;;10.40;99.90;;;;;;4999820;28;20214;-81
2023/01/13 10:50:10;;;;;;;7.00;2.17;;;10.50;99.90;;;;;;4997846;28;20191;-81
2023/01/13 10:52:41;;;;;;;14.85;2.50;;;10.60;99.90;;;;;;5016055;28;20171;-81
2023/01/13 10:55:27;;;;;;;9.35;2.22;;;10.40;99.90;;;;;;4997759;28;20183;-81
2023/01/13 10:57:53;;;;;;;10.02;2.42;;;10.30;99.90;;;;;;4997522;28;20180;-81
2023/01/13 11:00:32;;;;;;;5.97;2.23;;;10.20;99.90;;;;;;4998217;28;20198;-81
2023/01/13 11:03:12;;;;;;;19.80;3.35;;;10.20;99.90;;;;;;5015552;28;20803;-82
2023/01/13 11:05:37;;;;;;;12.57;3.58;;;10.10;99.90;;;;;;5015745;28;20167;-82
2023/01/13 11:08:04;;;;;;;7.50;1.80;;;10.10;99.90;;;;;;4997736;28;20218;-81
2023/01/13 11:10:32;;;;;;;10.02;2.33;;;10.00;99.90;;;;;;4982205;28;20186;-81
2023/01/13 11:13:12;;;;;;;11.23;2.50;;;10.00;99.90;;;;;;4997629;28;20190;-81
2023/01/13 11:15:45;;;;;;;8.75;3.00;;;10.00;99.90;;;;;;5015671;28;20228;-82
2023/01/13 11:18:16;;;;;;;9.45;2.70;;;10.10;99.90;;;;;;5016152;28;20178;-81
2023/01/13 11:20:45;;;;;;;15.75;2.38;;;10.00;99.90;;;;;;5015421;28;20257;-82
2023/01/13 11:23:28;;;;;;;16.92;3.90;;;10.10;99.90;;;;;;5015583;28;20190;-79
2023/01/13 11:26:01;;;;;;;9.48;1.98;;;10.20;99.90;;;;;;4998052;28;20680;-80
2023/01/13 11:29:01;;;;;;;11.38;2.38;;;10.20;99.90;;;;;;5015315;28;20542;-81
2023/01/13 11:31:38;;;;;;;8.90;3.03;;;10.10;99.90;;;;;;4997738;28;20239;-81
2023/01/13 11:34:31;;;;;;;8.60;2.47;;;10.00;99.90;;;;;;4997443;28;20236;-80
2023/01/13 11:36:59;;;;;;;12.52;2.33;;;10.00;99.90;;;;;;5015108;28;20171;-81
2023/01/13 11:39:34;;;;;;;8.68;3.08;;;9.90;99.90;;;;;;4997385;28;20301;-82
2023/01/13 11:42:20;;;;;;;10.45;2.38;;;10.00;99.90;;;;;;5014888;28;20166;-83
2023/01/13 11:45:11;;;;;;;8.68;2.70;;;10.00;99.90;;;;;;5015142;28;20171;-80
2023/01/13 11:47:37;;;;;;;6.55;2.00;;;10.00;99.90;;;;;;4997276;28;20206;-81
2023/01/13 11:50:06;;;;;;;8.20;2.20;;;9.90;99.90;;;;;;4997074;28;20222;-81
2023/01/13 11:53:01;;;;;;;4.75;1.80;;;9.90;99.90;;;;;;4981557;28;20278;-82
2023/01/13 11:55:38;;;;;;;7.38;2.08;;;9.80;99.90;;;;;;4988601;28;20183;-83
2023/01/13 11:58:45;;;;;;;4.55;1.33;;;9.90;99.90;;;;;;4996772;28;20182;-83
2023/01/13 12:01:20;;;;;;;11.80;2.80;;;9.90;99.90;;;;;;5013412;28;20186;-84
2023/01/13 12:03:56;;;;;;;17.33;3.40;;;10.00;99.90;;;;;;4995955;28;20204;-82
2023/01/13 12:06:36;;;;;;;8.13;1.88;;;10.00;99.90;;;;;;5026171;28;20170;-83
2023/01/13 12:09:10;;;;;;;9.40;1.98;;;10.00;99.90;;;;;;5031165;28;20253;-80
2023/01/13 12:12:18;;;;;;;7.75;2.25;;;10.10;99.90;;;;;;4998281;28;20191;-81
2023/01/13 12:15:19;;;;;;;9.38;2.10;;;10.10;99.90;;;;;;4997931;28;20205;-80
2023/01/13 12:18:10;;;;;;;6.80;2.20;;;10.20;99.90;;;;;;4997692;28;20182;-81
2023/01/13 12:20:57;;;;;;;10.32;2.17;;;10.10;99.90;;;;;;4997690;28;20237;-80
2023/01/13 12:23:58;;;;;;;6.97;1.85;;;10.00;99.90;;;;;;4998022;28;20251;-80
2023/01/13 12:26:23;;;;;;;4.72;1.95;;;10.00;99.90;;;;;;5003916;28;20553;-80
2023/01/13 12:29:13;;;;;;;8.90;2.00;;;10.20;99.90;;;;;;4981179;28;20218;-79
2023/01/13 12:31:40;;;;;;;7.40;1.98;;;10.30;99.90;;;;;;4997475;28;20191;-81
2023/01/13 12:34:30;;;;;;;9.93;2.22;;;10.10;99.90;;;;;;4981141;28;20592;-80
2023/01/13 12:37:20;;;;;;;11.25;1.75;;;9.90;99.90;;;;;;4997264;28;20179;-79
2023/01/13 12:40:19;;;;;;;8.63;1.95;;;9.90;99.90;;;;;;4997135;28;20231;-82
2023/01/13 12:46:33;;;;;;;11.88;2.28;;;9.80;99.90;;;;;;5014622;28;20290;-81
2023/01/13 12:49:03;;;;;;;11.38;2.90;;;9.70;99.90;;;;;;4996478;28;20214;-80
2023/01/13 12:51:56;;;;;;;9.93;2.80;;;9.70;99.90;;;;;;5014934;28;20178;-80
2023/01/13 12:54:40;;;;;;;9.45;1.77;;;9.70;99.90;;;;;;5014356;28;20178;-80
2023/01/13 12:57:26;;;;;;;18.58;3.10;;;9.60;99.90;;;;;;4996934;28;20467;-81
2023/01/13 13:00:03;;;;;;;10.00;1.88;;;9.60;99.90;;;;;;5014665;28;20167;-80
2023/01/13 13:02:37;;;;;;;5.35;1.55;;;9.50;99.90;;;;;;4997289;28;20261;-80
2023/01/13 13:05:21;;;;;;;10.98;2.10;;;9.20;99.90;;;;;;5014724;28;20643;-80
2023/01/13 13:07:59;;;;;;;16.08;4.25;;;8.80;99.90;;;;;;5016423;28;20277;-79
2023/01/13 13:10:33;;;;;;;13.50;3.20;;;8.60;99.90;;;;;;5000984;28;20195;-80
2023/01/13 13:13:18;;;;;;;14.05;2.85;;;8.30;99.90;;;;;;5000842;28;20175;-80
2023/01/13 13:15:50;;;;;;;13.23;3.42;;;8.20;99.90;;;;;;5001220;28;20262;-79
2023/01/13 13:18:16;;;;;;;14.10;2.63;;;7.90;99.90;;;;;;5017782;28;20694;-82
2023/01/13 13:21:02;;;;;;;10.33;2.47;;;7.80;99.90;;;;;;4996493;28;20373;-82
2023/01/13 13:23:42;;;;;;;7.47;2.55;;;7.60;99.90;;;;;;5014409;28;20167;-84
2023/01/13 13:26:30;;;;;;;12.13;2.95;;;7.50;99.90;;;;;;4999564;28;20171;-81
2023/01/13 13:29:23;;;;;;;8.00;2.45;;;7.50;99.90;;;;;;5000959;28;20218;-82
2023/01/13 13:32:07;;;;;;;11.30;2.30;;;7.40;99.90;;;;;;5019539;28;20175;-82
2023/01/13 13:34:57;;;;;;;11.85;2.05;;;7.30;99.90;;;;;;5020094;28;20542;-82
2023/01/13 13:46:47;;;;;;;9.50;2.15;;;7.30;99.90;;;;;;4989617;28;20213;-82
2023/01/13 13:49:15;;;;;;;17.23;2.60;;;7.30;99.90;;;;;;5017825;28;20172;-83
2023/01/13 13:51:53;;;;;;;7.22;2.35;;;7.30;99.90;;;;;;5000187;28;20255;-82
2023/01/13 13:54:21;;;;;;;11.07;3.05;;;7.30;99.90;;;;;;5017507;28;20173;-82
2023/01/13 13:56:49;;;;;;;16.77;3.03;;;7.40;99.90;;;;;;5000284;28;20274;-82
2023/01/13 13:59:22;;;;;;;10.63;4.68;;;7.40;99.90;;;;;;4996792;28;20198;-84
2023/01/13 14:02:02;;;;;;;7.07;1.55;;;7.40;99.90;;;;;;5015199;28;20170;-83
2023/01/13 14:04:37;;;;;;;15.82;2.70;;;7.50;99.90;;;;;;5019179;28;20174;-82
2023/01/13 14:07:19;;;;;;;9.27;2.97;;;7.60;99.90;;;;;;5036588;28;20185;-81
2023/01/13 14:09:49;;;;;;;10.07;2.70;;;7.60;99.90;;;;;;5024872;28;20518;-81
2023/01/13 14:12:21;;;;;;;4.88;2.03;;;7.60;99.90;;;;;;4999109;28;20175;-81
2023/01/13 14:14:48;;;;;;;10.98;3.70;;;7.70;99.90;;;;;;5016350;28;20565;-81
2023/01/13 14:17:21;;;;;;;6.55;2.33;;;7.80;99.90;;;;;;5016825;28;20179;-81
2023/01/13 14:20:08;;;;;;;8.43;2.47;;;7.80;99.90;;;;;;5015760;28;20585;-81
2023/01/13 14:22:34;;;;;;;16.52;3.40;;;7.90;99.90;;;;;;4998917;28;20171;-81
2023/01/13 14:25:00;;;;;;;16.37;2.50;;;7.90;99.90;;;;;;4983098;28;20197;-81
2023/01/13 14:27:28;;;;;;;12.18;3.35;;;7.90;99.90;;;;;;4983823;28;20461;-81
2023/01/13 14:29:57;;;;;;;8.35;2.05;;;7.90;99.90;;;;;;4999754;28;20261;-81
2023/01/13 14:32:28;;;;;;;10.95;2.90;;;7.90;99.90;;;;;;4998314;28;20175;-82